Time,TemperatureF,DewpointF,PressureIn,WindDirection,WindDirectionDegrees,WindSpeedMPH,WindSpeedGustMPH,Humidity,HourlyPrecipIn,Conditions,Clouds,dailyrainin,SoftwareType,DateUTC
2013-05-15 00:00:00,54.2,46.0,30.25,NE,40,0.0,2.0,74,0.00,,,0.00,weatherlink.com 1.10,2013-05-15 04:00:00,
2013-05-15 00:15:00,54.3,47.0,30.25,SW,223,0.0,5.0,75,0.00,,,0.00,weatherlink.com 1.10,2013-05-15 04:15:00,
2013-05-15 00:30:00,54.4,46.0,30.25,East,96,0.0,1.0,74,0.00,,,0.00,weatherlink.com 1.10,2013-05-15 04:30:00,
2013-05-15 00:45:00,54.4,47.0,30.24,East,96,0.0,0.0,77,0.00,,,0.00,weatherlink.com 1.10,2013-05-15 04:45:00,
2013-05-15 01:00:00,53.8,47.0,30.23,East,96,0.0,0.0,79,0.00,,,0.00,weatherlink.com 1.10,2013-05-15 05:00:00,
2013-05-15 01:16:00,52.9,47.0,30.23,East,96,0.0,0.0,81,0.00,,,0.00,weatherlink.com 1.10,2013-05-15 05:16:00,
2013-05-15 01:31:00,51.9,46.0,30.22,East,96,0.0,0.0,81,0.00,,,0.00,weatherlink.com 1.10,2013-05-15 05:31:00,
2013-05-15 01:46:00,51.0,46.0,30.21,East,96,0.0,0.0,82,0.00,,,0.00,weatherlink.com 1.10,2013-05-15 05:46:00,
2013-05-15 02:01:00,50.3,45.0,30.21,East,96,0.0,0.0,83,0.00,,,0.00,weatherlink.com 1.10,2013-05-15 06:01:00,
2013-05-15 02:16:00,49.8,45.0,30.21,East,96,0.0,0.0,84,0.00,,,0.00,weatherlink.com 1.10,2013-05-15 06:16:00,
2013-05-15 02:31:00,49.1,45.0,30.21,East,96,0.0,0.0,86,0.00,,,0.00,weatherlink.com 1.10,2013-05-15 06:31:00,
2013-05-15 02:46:00,48.6,45.0,30.20,East,96,0.0,0.0,87,0.00,,,0.00,weatherlink.com 1.10,2013-05-15 06:46:00,
2013-05-15 03:01:00,48.3,45.0,30.20,East,96,0.0,0.0,87,0.00,,,0.00,weatherlink.com 1.10,2013-05-15 07:01:00,
2013-05-15 03:16:00,48.2,45.0,30.20,East,96,0.0,0.0,88,0.00,,,0.00,weatherlink.com 1.10,2013-05-15 07:16:00,
2013-05-15 03:31:00,47.6,45.0,30.20,East,96,0.0,0.0,89,0.00,,,0.00,weatherlink.com 1.10,2013-05-15 07:31:00,
2013-05-15 03:46:00,47.1,44.0,30.20,East,96,0.0,0.0,90,0.00,,,0.00,weatherlink.com 1.10,2013-05-15 07:46:00,
2013-05-15 04:01:00,46.8,44.0,30.20,East,96,0.0,0.0,90,0.00,,,0.00,weatherlink.com 1.10,2013-05-15 08:01:00,
2013-05-15 04:16:00,46.6,44.0,30.19,East,96,0.0,0.0,91,0.00,,,0.00,weatherlink.com 1.10,2013-05-15 08:16:00,
2013-05-15 04:31:00,46.5,44.0,30.19,East,96,0.0,0.0,92,0.00,,,0.00,weatherlink.com 1.10,2013-05-15 08:31:00,
2013-05-15 04:46:00,46.4,44.0,30.20,East,96,0.0,0.0,92,0.00,,,0.00,weatherlink.com 1.10,2013-05-15 08:46:00,
2013-05-15 05:01:00,46.1,44.0,30.19,East,96,0.0,0.0,92,0.00,,,0.00,weatherlink.com 1.10,2013-05-15 09:01:00,
2013-05-15 05:16:00,45.9,44.0,30.19,East,96,0.0,0.0,92,0.00,,,0.00,weatherlink.com 1.10,2013-05-15 09:16:00,
2013-05-15 05:31:00,45.8,44.0,30.19,East,96,0.0,0.0,92,0.00,,,0.00,weatherlink.com 1.10,2013-05-15 09:31:00,
2013-05-15 05:46:00,45.6,44.0,30.20,East,96,0.0,0.0,93,0.00,,,0.00,weatherlink.com 1.10,2013-05-15 09:46:00,
2013-05-15 06:01:00,45.7,44.0,30.20,East,96,0.0,0.0,94,0.00,,,0.00,weatherlink.com 1.10,2013-05-15 10:01:00,
2013-05-15 06:16:00,45.6,44.0,30.20,East,96,0.0,0.0,94,0.00,,,0.00,weatherlink.com 1.10,2013-05-15 10:16:00,
2013-05-15 06:31:00,46.7,45.0,30.20,ESE,119,0.0,2.0,93,0.00,,,0.00,weatherlink.com 1.10,2013-05-15 10:31:00,
2013-05-15 06:46:00,47.9,46.0,30.20,WSW,244,0.0,5.0,91,0.00,,,0.00,weatherlink.com 1.10,2013-05-15 10:46:00,
2013-05-15 07:01:00,48.5,46.0,30.20,WSW,244,0.0,0.0,91,0.00,,,0.00,weatherlink.com 1.10,2013-05-15 11:01:00,
2013-05-15 07:31:00,50.3,46.0,30.20,West,263,0.0,0.0,85,0.00,,,0.00,weatherlink.com 1.10,2013-05-15 11:31:00,
2013-05-15 08:16:00,53.6,48.0,30.19,SW,227,0.0,4.0,80,0.00,,,0.00,weatherlink.com 1.10,2013-05-15 12:16:00,
2013-05-15 08:46:00,56.9,50.0,30.19,SW,221,2.0,5.0,77,0.00,,,0.00,weatherlink.com 1.10,2013-05-15 12:46:00,
2013-05-15 09:01:00,58.4,51.0,30.19,SSW,201,0.0,3.0,76,0.00,,,0.00,weatherlink.com 1.10,2013-05-15 13:01:00,
2013-05-15 09:17:00,59.7,51.0,30.18,SSE,151,0.0,2.0,74,0.00,,,0.00,weatherlink.com 1.10,2013-05-15 13:17:00,
2013-05-15 09:32:00,61.6,52.0,30.17,SSE,152,0.0,0.0,72,0.00,,,0.00,weatherlink.com 1.10,2013-05-15 13:32:00,
2013-05-15 09:47:00,63.8,54.0,30.15,South,170,0.0,0.0,70,0.00,,,0.00,weatherlink.com 1.10,2013-05-15 13:47:00,
2013-05-15 10:02:00,66.5,56.0,30.16,WNW,290,5.0,7.0,69,0.00,,,0.00,weatherlink.com 1.10,2013-05-15 14:02:00,
2013-05-15 10:31:00,70.1,57.0,30.14,SSW,206,10.0,11.0,63,0.00,,,0.00,weatherlink.com 1.10,2013-05-15 14:31:00,
2013-05-15 10:46:00,72.2,57.0,30.13,SW,230,9.0,11.0,59,0.00,,,0.00,weatherlink.com 1.10,2013-05-15 14:46:00,
2013-05-15 11:17:00,74.0,58.0,30.12,SSW,213,9.0,15.0,58,0.00,,,0.00,weatherlink.com 1.10,2013-05-15 15:17:00,
2013-05-15 11:47:00,76.1,59.0,30.10,SW,234,7.0,15.0,55,0.00,,,0.00,weatherlink.com 1.10,2013-05-15 15:47:00,
2013-05-15 12:02:00,77.4,59.0,30.10,South,180,8.0,19.0,54,0.00,,,0.00,weatherlink.com 1.10,2013-05-15 16:02:00,
2013-05-15 12:17:00,78.6,59.0,30.09,SW,229,12.0,18.0,52,0.00,,,0.00,weatherlink.com 1.10,2013-05-15 16:17:00,
2013-05-15 12:32:00,79.6,59.0,30.09,SW,225,11.0,20.0,50,0.00,,,0.00,weatherlink.com 1.10,2013-05-15 16:32:00,
2013-05-15 12:47:00,80.9,60.0,30.08,SW,227,8.0,14.0,50,0.00,,,0.00,weatherlink.com 1.10,2013-05-15 16:47:00,
2013-05-15 13:17:00,80.1,61.0,30.07,SSW,202,5.0,15.0,53,0.00,,,0.00,weatherlink.com 1.10,2013-05-15 17:17:00,
2013-05-15 13:32:00,81.8,61.0,30.06,SSW,202,7.0,13.0,50,0.00,,,0.00,weatherlink.com 1.10,2013-05-15 17:32:00,
2013-05-15 13:47:00,82.8,62.0,30.05,SW,222,8.0,18.0,50,0.00,,,0.00,weatherlink.com 1.10,2013-05-15 17:47:00,
2013-05-15 14:02:00,84.3,62.0,30.04,SSW,207,7.0,16.0,47,0.00,,,0.00,weatherlink.com 1.10,2013-05-15 18:02:00,
2013-05-15 14:17:00,85.4,62.0,30.03,South,177,10.0,16.0,45,0.00,,,0.00,weatherlink.com 1.10,2013-05-15 18:17:00,
2013-05-15 14:32:00,86.3,59.0,30.02,SSW,205,11.0,14.0,39,0.00,,,0.00,weatherlink.com 1.10,2013-05-15 18:32:00,
2013-05-15 14:47:00,88.1,59.0,30.02,SSW,205,6.0,11.0,38,0.00,,,0.00,weatherlink.com 1.10,2013-05-15 18:47:00,
2013-05-15 15:03:00,90.5,56.0,30.01,WSW,244,5.0,10.0,31,0.00,,,0.00,weatherlink.com 1.10,2013-05-15 19:03:00,
2013-05-15 15:18:00,91.7,51.0,30.00,WNW,297,9.0,24.0,25,0.00,,,0.00,weatherlink.com 1.10,2013-05-15 19:18:00,
2013-05-15 15:33:00,92.2,49.0,29.99,WNW,302,14.0,21.0,23,0.00,,,0.00,weatherlink.com 1.10,2013-05-15 19:33:00,
2013-05-15 15:48:00,92.0,51.0,29.99,West,273,6.0,29.0,25,0.00,,,0.00,weatherlink.com 1.10,2013-05-15 19:48:00,
2013-05-15 16:03:00,92.2,48.0,29.98,WSW,255,16.0,26.0,22,0.00,,,0.00,weatherlink.com 1.10,2013-05-15 20:03:00,
2013-05-15 16:18:00,91.9,47.0,29.98,NW,312,22.0,29.0,21,0.00,,,0.00,weatherlink.com 1.10,2013-05-15 20:18:00,
2013-05-15 16:33:00,92.5,50.0,29.97,West,273,19.0,22.0,23,0.00,,,0.00,weatherlink.com 1.10,2013-05-15 20:33:00,
2013-05-15 16:48:00,92.7,46.0,29.97,NW,309,22.0,27.0,20,0.00,,,0.00,weatherlink.com 1.10,2013-05-15 20:48:00,
2013-05-15 17:03:00,92.3,47.0,29.96,NW,316,20.0,27.0,21,0.00,,,0.00,weatherlink.com 1.10,2013-05-15 21:03:00,
2013-05-15 17:18:00,92.6,47.0,29.96,West,272,10.0,28.0,21,0.00,,,0.00,weatherlink.com 1.10,2013-05-15 21:18:00,
2013-05-15 17:33:00,91.9,45.0,29.96,SSE,158,7.0,30.0,20,0.00,,,0.00,weatherlink.com 1.10,2013-05-15 21:33:00,
2013-05-15 17:48:00,91.5,46.0,29.95,WNW,283,11.0,27.0,21,0.00,,,0.00,weatherlink.com 1.10,2013-05-15 21:48:00,
2013-05-15 18:03:00,90.4,47.0,29.95,WNW,296,13.0,21.0,22,0.00,,,0.00,weatherlink.com 1.10,2013-05-15 22:03:00,
2013-05-15 18:18:00,89.7,46.0,29.95,SW,232,5.0,28.0,22,0.00,,,0.00,weatherlink.com 1.10,2013-05-15 22:18:00,
2013-05-15 18:33:00,89.4,47.0,29.94,WNW,288,4.0,20.0,23,0.00,,,0.00,weatherlink.com 1.10,2013-05-15 22:33:00,
2013-05-15 18:48:00,89.8,46.0,29.95,West,271,10.0,25.0,22,0.00,,,0.00,weatherlink.com 1.10,2013-05-15 22:48:00,
2013-05-15 19:33:00,87.3,47.0,29.96,West,268,11.0,27.0,25,0.00,,,0.00,weatherlink.com 1.10,2013-05-15 23:33:00,
2013-05-15 19:48:00,87.2,46.0,29.96,NW,307,22.0,25.0,24,0.00,,,0.00,weatherlink.com 1.10,2013-05-15 23:48:00,
2013-05-15 20:03:00,86.1,47.0,29.97,West,266,3.0,14.0,26,0.00,,,0.00,weatherlink.com 1.10,2013-05-16 00:03:00,
2013-05-15 20:18:00,83.9,47.0,29.98,West,268,16.0,20.0,28,0.00,,,0.00,weatherlink.com 1.10,2013-05-16 00:18:00,
2013-05-15 20:33:00,84.8,47.0,29.98,WNW,290,6.0,19.0,27,0.00,,,0.00,weatherlink.com 1.10,2013-05-16 00:33:00,
2013-05-15 20:48:00,83.5,47.0,29.99,West,273,6.0,12.0,28,0.00,,,0.00,weatherlink.com 1.10,2013-05-16 00:48:00,
2013-05-15 21:03:00,82.1,48.0,30.00,West,259,2.0,11.0,30,0.00,,,0.00,weatherlink.com 1.10,2013-05-16 01:03:00,
2013-05-15 21:18:00,81.5,48.0,30.01,WNW,290,0.0,4.0,31,0.00,,,0.00,weatherlink.com 1.10,2013-05-16 01:18:00,
2013-05-15 21:48:00,79.5,49.0,30.03,South,178,1.0,5.0,34,0.00,,,0.00,weatherlink.com 1.10,2013-05-16 01:48:00,
2013-05-15 22:03:00,79.4,48.0,30.04,West,279,6.0,15.0,33,0.00,,,0.00,weatherlink.com 1.10,2013-05-16 02:03:00,
2013-05-15 22:19:00,81.2,47.0,30.05,WNW,298,2.0,14.0,30,0.00,,,0.00,weatherlink.com 1.10,2013-05-16 02:19:00,
2013-05-15 22:33:00,79.8,47.0,30.05,South,190,2.0,2.0,32,0.00,,,0.00,weatherlink.com 1.10,2013-05-16 02:33:00,
2013-05-15 23:18:00,78.9,47.0,30.05,South,171,2.0,8.0,32,0.00,,,0.00,weatherlink.com 1.10,2013-05-16 03:18:00,
2013-05-15 23:33:00,78.4,48.0,30.05,SSW,205,4.0,13.0,34,0.00,,,0.00,weatherlink.com 1.10,2013-05-16 03:33:00,